createdAt,value
2022-08-03T00:02:35.916Z,18.52
2022-08-03T00:05:38.833Z,18.48
2022-08-03T00:08:41.674Z,18.42
2022-08-03T00:11:44.901Z,18.43
2022-08-03T00:14:48.292Z,18.42
2022-08-03T00:17:54.119Z,18.41
2022-08-03T00:20:57.575Z,18.33
2022-08-03T00:24:00.483Z,18.44
2022-08-03T00:27:03.488Z,18.35
2022-08-03T00:30:08.345Z,18.28
2022-08-03T00:33:12.693Z,18.36
2022-08-03T00:36:17.489Z,18.24
2022-08-03T00:39:20.386Z,18.28
2022-08-03T00:42:23.218Z,18.31
2022-08-03T00:45:33.236Z,18.30
2022-08-03T00:48:38.168Z,18.27
2022-08-03T00:51:41.258Z,18.22
2022-08-03T00:54:44.271Z,17.83
2022-08-03T00:57:48.007Z,17.73
2022-08-03T01:00:51.337Z,17.52
2022-08-03T01:03:55.643Z,17.47
2022-08-03T01:07:10.872Z,17.24
2022-08-03T01:10:26.074Z,17.47
2022-08-03T01:14:01.103Z,17.52
2022-08-03T01:17:06.154Z,17.45
2022-08-03T01:20:13.703Z,17.50
2022-08-03T01:23:48.137Z,17.50
2022-08-03T01:27:06.131Z,17.46
2022-08-03T01:30:13.978Z,17.32
2022-08-03T01:33:23.859Z,17.15
2022-08-03T01:36:34.935Z,17.14
2022-08-03T01:39:41.878Z,17.25
2022-08-03T01:42:47.302Z,17.34
2022-08-03T01:45:52.835Z,17.29
2022-08-03T01:48:57.516Z,17.24
2022-08-03T01:52:05.048Z,17.18
2022-08-03T01:55:10.968Z,17.31
2022-08-03T01:58:16.252Z,17.36
2022-08-03T02:01:26.547Z,17.10
2022-08-03T02:04:51.652Z,17.01
2022-08-03T02:07:56.790Z,16.96
2022-08-03T02:11:03.564Z,16.95
2022-08-03T02:14:07.854Z,16.97
2022-08-03T02:17:13.701Z,16.92
2022-08-03T02:20:18.018Z,16.97
2022-08-03T02:23:20.995Z,16.90
2022-08-03T02:26:25.480Z,16.99
2022-08-03T02:29:40.070Z,16.97
2022-08-03T02:32:52.733Z,16.89
2022-08-03T02:35:56.193Z,16.93
2022-08-03T02:39:03.367Z,16.92
2022-08-03T02:42:09.953Z,16.82
2022-08-03T02:45:18.386Z,16.83
2022-08-03T02:48:26.573Z,16.78
2022-08-03T02:51:34.165Z,16.78
2022-08-03T02:54:39.372Z,16.77
2022-08-03T02:57:44.251Z,16.72
2022-08-03T03:00:48.081Z,16.67
2022-08-03T03:03:53.776Z,16.73
2022-08-03T03:06:57.683Z,16.72
2022-08-03T03:10:01.352Z,16.70
2022-08-03T03:13:04.378Z,16.71
2022-08-03T03:16:07.762Z,16.71
2022-08-03T03:19:14.612Z,16.68
2022-08-03T03:22:18.660Z,16.62
2022-08-03T03:25:23.647Z,16.60
2022-08-03T03:28:26.974Z,16.60
2022-08-03T03:31:33.046Z,16.53
2022-08-03T03:34:38.349Z,16.44
2022-08-03T03:37:41.125Z,16.46
2022-08-03T03:40:44.080Z,16.49
2022-08-03T03:43:46.983Z,16.42
2022-08-03T03:46:52.286Z,16.42
2022-08-03T03:49:57.756Z,16.39
2022-08-03T03:53:03.160Z,16.45
2022-08-03T03:56:05.964Z,16.42
2022-08-03T03:59:08.741Z,16.32
2022-08-03T04:02:12.720Z,16.30
2022-08-03T04:05:34.604Z,16.29
2022-08-03T04:08:55.010Z,16.26
2022-08-03T04:12:02.081Z,16.28
2022-08-03T04:15:07.612Z,16.22
2022-08-03T04:18:15.020Z,16.26
2022-08-03T04:21:23.489Z,16.26
2022-08-03T04:24:31.874Z,16.29
2022-08-03T04:27:39.233Z,16.22
2022-08-03T04:30:47.774Z,16.30
2022-08-03T04:33:52.780Z,16.37
2022-08-03T04:37:00.988Z,16.38
2022-08-03T04:40:07.048Z,16.40
2022-08-03T04:43:11.062Z,16.40
2022-08-03T04:46:15.349Z,16.42
2022-08-03T04:49:19.374Z,16.51
2022-08-03T04:52:23.802Z,16.57
2022-08-03T04:55:29.635Z,16.61
2022-08-03T04:58:32.457Z,16.67
2022-08-03T05:01:38.018Z,16.77
2022-08-03T05:04:49.462Z,16.85
2022-08-03T05:07:53.614Z,16.94
2022-08-03T05:10:59.585Z,17.02
2022-08-03T05:14:04.986Z,17.12
2022-08-03T05:17:08.410Z,17.26
2022-08-03T05:20:12.502Z,17.41
2022-08-03T05:23:16.720Z,17.53
2022-08-03T05:26:19.535Z,17.61
2022-08-03T05:29:22.660Z,17.74
2022-08-03T05:32:25.554Z,17.91
2022-08-03T05:35:57.537Z,18.02
2022-08-03T05:38:58.531Z,18.18
2022-08-03T05:42:05.371Z,18.34
2022-08-03T05:45:15.439Z,18.42
2022-08-03T05:48:18.258Z,18.57
2022-08-03T05:51:21.151Z,18.73
2022-08-03T05:54:25.304Z,18.82
2022-08-03T05:57:49.211Z,18.99
2022-08-03T06:00:52.315Z,19.15
2022-08-03T06:03:55.182Z,19.19
2022-08-03T06:07:01.210Z,19.35
2022-08-03T06:10:36.216Z,19.56
2022-08-03T06:13:29.688Z,19.80
2022-08-03T06:16:33.700Z,19.92
2022-08-03T06:19:36.566Z,19.94
2022-08-03T06:22:50.496Z,20.26
2022-08-03T06:25:56.355Z,20.43
2022-08-03T06:28:59.363Z,20.56
2022-08-03T06:32:02.227Z,20.80
2022-08-03T06:35:06.426Z,20.85
2022-08-03T06:38:09.385Z,21.00
2022-08-03T06:41:13.590Z,21.31
2022-08-03T06:44:17.462Z,21.56
2022-08-03T06:47:20.283Z,21.48
2022-08-03T06:50:26.310Z,21.71
2022-08-03T06:53:29.278Z,21.90
2022-08-03T06:56:34.188Z,21.95
2022-08-03T07:00:10.527Z,22.28
2022-08-03T07:03:01.509Z,22.37
2022-08-03T07:06:04.509Z,22.52
2022-08-03T07:09:07.599Z,22.64
2022-08-03T07:12:12.390Z,22.78
2022-08-03T07:15:20.269Z,23.07
2022-08-03T07:18:41.146Z,23.41
2022-08-03T07:21:44.094Z,23.50
2022-08-03T07:24:47.811Z,23.72
2022-08-03T07:27:52.554Z,23.97
2022-08-03T07:30:55.495Z,24.13
2022-08-03T07:34:00.449Z,24.22
2022-08-03T07:37:04.163Z,24.33
2022-08-03T07:40:08.566Z,24.73
2022-08-03T07:43:12.765Z,24.90
2022-08-03T07:46:15.909Z,25.02
2022-08-03T07:49:19.350Z,25.19
2022-08-03T07:52:39.691Z,25.10
2022-08-03T07:55:42.741Z,25.12
2022-08-03T07:58:48.122Z,25.25
2022-08-03T08:01:53.650Z,25.34
2022-08-03T08:04:56.488Z,25.38
2022-08-03T08:07:59.533Z,25.62
2022-08-03T08:11:04.550Z,25.73
2022-08-03T08:14:09.825Z,25.79
2022-08-03T08:17:12.658Z,25.85
2022-08-03T08:20:28.373Z,25.80
2022-08-03T08:23:43.096Z,25.94
2022-08-03T08:26:47.708Z,25.95
2022-08-03T08:29:55.703Z,26.11
2022-08-03T08:32:59.606Z,26.22
2022-08-03T08:36:03.445Z,26.17
2022-08-03T08:39:06.432Z,26.24
2022-08-03T08:42:11.502Z,26.50
2022-08-03T08:45:16.634Z,26.51
2022-08-03T08:48:25.512Z,26.45
2022-08-03T08:51:54.623Z,26.50
2022-08-03T08:55:00.149Z,26.58
2022-08-03T08:58:07.337Z,26.66
2022-08-03T09:01:11.647Z,26.74
2022-08-03T09:04:14.544Z,26.73
2022-08-03T09:07:20.270Z,27.13
2022-08-03T09:10:26.489Z,27.10
2022-08-03T09:13:30.622Z,27.17
2022-08-03T09:16:34.900Z,27.23
2022-08-03T09:19:38.024Z,27.35
2022-08-03T09:22:53.688Z,27.24
2022-08-03T09:26:01.526Z,27.33
2022-08-03T09:29:13.490Z,27.48
2022-08-03T09:32:22.174Z,27.58
2022-08-03T09:35:51.719Z,27.49
2022-08-03T09:39:08.464Z,27.72
2022-08-03T09:42:14.781Z,27.64
2022-08-03T09:45:28.050Z,27.74
2022-08-03T09:48:34.856Z,27.75
2022-08-03T09:52:28.914Z,27.88
2022-08-03T09:55:04.085Z,27.98
2022-08-03T09:58:09.559Z,28.04
2022-08-03T10:01:24.173Z,28.10
2022-08-03T10:04:29.844Z,28.01
2022-08-03T10:07:45.815Z,28.04
2022-08-03T10:12:38.461Z,28.16
2022-08-03T10:16:21.430Z,28.41
2022-08-03T10:19:07.655Z,28.34
2022-08-03T10:22:15.634Z,28.51
2022-08-03T10:25:19.328Z,28.40
2022-08-03T10:28:23.281Z,28.51
2022-08-03T10:31:27.453Z,28.57
2022-08-03T10:34:37.664Z,28.57
2022-08-03T10:37:48.394Z,28.52
2022-08-03T10:41:04.448Z,28.64
2022-08-03T10:44:11.042Z,28.83
2022-08-03T10:47:17.268Z,28.81
2022-08-03T10:50:20.969Z,28.89
2022-08-03T10:53:38.068Z,28.86
2022-08-03T10:57:03.433Z,28.92
2022-08-03T11:00:18.728Z,29.11
2022-08-03T11:03:21.711Z,28.96
2022-08-03T11:06:27.125Z,28.84
2022-08-03T11:09:47.630Z,28.91
2022-08-03T11:12:50.887Z,28.99
2022-08-03T11:16:01.574Z,29.05
2022-08-03T11:19:07.557Z,29.27
2022-08-03T11:22:10.799Z,29.39
2022-08-03T11:25:53.815Z,29.46
2022-08-03T11:28:40.911Z,29.40
2022-08-03T11:31:52.356Z,29.35
2022-08-03T11:35:08.973Z,29.40
2022-08-03T11:38:13.049Z,29.53
2022-08-03T11:41:44.894Z,29.43
2022-08-03T11:44:48.930Z,29.53
2022-08-03T11:47:55.692Z,29.77
2022-08-03T11:50:58.654Z,29.40
2022-08-03T11:54:04.386Z,29.65
2022-08-03T11:57:08.684Z,29.77
2022-08-03T12:00:22.289Z,29.84
2022-08-03T12:03:25.177Z,29.92
2022-08-03T12:06:28.003Z,29.94
2022-08-03T12:09:30.987Z,30.01
2022-08-03T12:12:35.315Z,30.14
2022-08-03T12:15:39.479Z,30.15
2022-08-03T12:18:42.842Z,30.14
2022-08-03T12:21:56.989Z,30.24
2022-08-03T12:25:00.341Z,30.19
2022-08-03T12:28:36.078Z,30.32
2022-08-03T12:31:40.851Z,30.42
2022-08-03T12:34:47.462Z,30.46
2022-08-03T12:37:54.346Z,30.45
2022-08-03T12:40:59.083Z,30.35
2022-08-03T12:44:04.473Z,30.42
2022-08-03T12:47:08.567Z,30.47
2022-08-03T12:50:25.715Z,30.47
2022-08-03T12:53:30.451Z,30.51
2022-08-03T12:56:33.347Z,30.65
2022-08-03T12:59:42.459Z,30.85
2022-08-03T13:03:39.663Z,30.73
2022-08-03T13:06:25.300Z,30.69
2022-08-03T13:09:29.209Z,30.72
2022-08-03T13:12:32.608Z,30.73
2022-08-03T13:15:38.589Z,30.56
2022-08-03T13:18:43.262Z,30.63
2022-08-03T13:21:53.833Z,30.89
2022-08-03T13:25:08.550Z,30.93
2022-08-03T13:28:14.289Z,30.87
2022-08-03T13:31:18.873Z,30.84
2022-08-03T13:34:24.022Z,30.83
2022-08-03T13:37:27.366Z,30.70
2022-08-03T13:40:34.486Z,30.60
2022-08-03T13:43:44.150Z,30.78
2022-08-03T13:46:48.481Z,30.86
2022-08-03T13:50:00.403Z,30.91
2022-08-03T13:53:05.257Z,30.92
2022-08-03T13:56:08.084Z,31.09
2022-08-03T13:59:11.151Z,31.20
2022-08-03T14:02:15.618Z,30.99
2022-08-03T14:05:19.019Z,30.90
2022-08-03T14:09:33.431Z,30.86
2022-08-03T14:12:36.547Z,30.87
2022-08-03T14:15:39.400Z,30.97
2022-08-03T14:18:43.626Z,31.12
2022-08-03T14:22:01.780Z,31.03
2022-08-03T14:25:09.747Z,31.01
2022-08-03T14:28:13.244Z,30.95
2022-08-03T14:32:10.799Z,31.07
2022-08-03T14:34:42.792Z,30.97
2022-08-03T14:37:46.210Z,31.03
2022-08-03T14:40:50.197Z,31.15
2022-08-03T14:44:01.271Z,30.95
2022-08-03T14:47:05.380Z,30.92
2022-08-03T14:50:30.698Z,31.13
2022-08-03T14:53:33.723Z,31.11
2022-08-03T14:56:36.786Z,31.04
2022-08-03T14:59:55.581Z,30.89
2022-08-03T15:03:00.123Z,30.89
2022-08-03T15:06:04.526Z,30.93
2022-08-03T15:09:21.218Z,31.11
2022-08-03T15:12:26.082Z,30.93
2022-08-03T15:15:29.310Z,30.91
2022-08-03T15:18:32.412Z,30.95
2022-08-03T15:21:46.083Z,30.91
2022-08-03T15:24:49.409Z,30.91
2022-08-03T15:32:38.970Z,31.10
2022-08-03T15:35:41.710Z,31.05
2022-08-03T15:38:46.388Z,31.22
2022-08-03T15:41:49.171Z,31.11
2022-08-03T15:44:51.967Z,30.98
2022-08-03T15:47:55.649Z,30.96
2022-08-03T15:50:58.672Z,30.96
2022-08-03T15:54:03.063Z,31.02
2022-08-03T15:57:06.710Z,31.00
2022-08-03T16:00:10.949Z,30.86
2022-08-03T16:03:13.892Z,30.86
2022-08-03T16:06:16.834Z,30.96
2022-08-03T16:09:43.249Z,30.93
2022-08-03T16:12:47.758Z,30.88
2022-08-03T16:15:50.636Z,30.80
2022-08-03T16:18:53.460Z,30.87
2022-08-03T16:21:56.311Z,30.90
2022-08-03T16:25:01.817Z,30.80
2022-08-03T16:28:08.177Z,30.74
2022-08-03T16:31:15.753Z,30.83
2022-08-03T16:34:18.518Z,30.79
2022-08-03T16:37:38.063Z,30.68
2022-08-03T16:40:43.086Z,30.63
2022-08-03T16:43:45.903Z,30.60
2022-08-03T16:46:48.735Z,30.54
2022-08-03T16:49:52.844Z,30.43
2022-08-03T16:52:59.148Z,30.44
2022-08-03T16:56:09.488Z,30.40
2022-08-03T16:59:13.062Z,30.26
2022-08-03T17:02:21.832Z,30.23
2022-08-03T17:05:32.610Z,30.19
2022-08-03T17:08:55.284Z,30.20
2022-08-03T17:11:59.844Z,30.29
2022-08-03T17:15:03.236Z,30.16
2022-08-03T17:18:09.303Z,30.13
2022-08-03T17:21:13.185Z,30.11
2022-08-03T17:24:26.338Z,30.08
2022-08-03T17:28:49.098Z,30.04
2022-08-03T17:31:23.565Z,29.98
2022-08-03T17:34:35.271Z,29.95
2022-08-03T17:37:57.531Z,29.91
2022-08-03T17:41:10.626Z,29.85
2022-08-03T17:44:36.425Z,29.81
2022-08-03T17:47:42.278Z,29.79
2022-08-03T17:50:53.286Z,29.76
2022-08-03T17:54:05.961Z,29.72
2022-08-03T17:57:30.041Z,29.59
2022-08-03T18:02:03.174Z,29.65
2022-08-03T18:04:42.727Z,29.56
2022-08-03T18:07:59.369Z,29.54
2022-08-03T18:11:09.702Z,29.52
2022-08-03T18:14:26.002Z,29.47
2022-08-03T18:17:55.094Z,29.36
2022-08-03T18:20:55.405Z,29.28
2022-08-03T18:23:59.460Z,29.18
2022-08-03T18:27:03.311Z,29.02
2022-08-03T18:30:07.390Z,28.90
2022-08-03T18:34:16.977Z,28.77
2022-08-03T18:36:39.252Z,28.49
2022-08-03T18:39:49.988Z,28.43
2022-08-03T18:42:55.688Z,28.23
2022-08-03T18:46:02.937Z,28.16
2022-08-03T18:49:12.902Z,28.11
2022-08-03T18:52:18.050Z,27.95
2022-08-03T18:55:33.126Z,27.84
2022-08-03T18:58:47.348Z,27.69
2022-08-03T19:01:57.908Z,27.63
2022-08-03T19:05:08.689Z,27.43
2022-08-03T19:08:17.966Z,27.33
2022-08-03T19:11:27.827Z,27.26
2022-08-03T19:14:42.280Z,27.19
2022-08-03T19:17:53.385Z,27.05
2022-08-03T19:20:59.357Z,27.00
2022-08-03T19:24:09.526Z,26.91
2022-08-03T19:27:16.109Z,26.76
2022-08-03T19:30:53.493Z,26.51
2022-08-03T19:33:58.794Z,26.06
2022-08-03T19:37:04.740Z,25.91
2022-08-03T19:40:10.269Z,25.54
2022-08-03T19:43:52.604Z,25.41
2022-08-03T19:47:02.810Z,25.18
2022-08-03T19:50:13.960Z,25.25
2022-08-03T19:53:20.146Z,25.31
2022-08-03T19:56:27.428Z,25.10
2022-08-03T19:59:32.750Z,25.13
2022-08-03T20:02:35.823Z,24.74
2022-08-03T20:05:45.125Z,24.63
2022-08-03T20:08:56.788Z,24.67
2022-08-03T20:12:01.776Z,24.49
2022-08-03T20:15:07.218Z,24.42
2022-08-03T20:18:16.499Z,24.03
2022-08-03T20:21:20.447Z,23.92
2022-08-03T20:24:28.246Z,23.78
2022-08-03T20:27:35.483Z,23.76
2022-08-03T20:30:59.885Z,23.60
2022-08-03T20:34:07.174Z,23.52
2022-08-03T20:37:12.247Z,23.57
2022-08-03T20:40:16.496Z,23.68
2022-08-03T20:43:22.290Z,23.67
2022-08-03T20:46:32.078Z,23.77
2022-08-03T20:49:45.910Z,23.90
2022-08-03T20:52:50.476Z,23.90
2022-08-03T20:56:02.160Z,23.81
2022-08-03T20:59:07.388Z,23.82
2022-08-03T21:02:19.756Z,23.80
2022-08-03T21:05:47.982Z,23.77
2022-08-03T21:09:03.950Z,23.72
2022-08-03T21:12:15.301Z,23.67
2022-08-03T21:16:06.719Z,23.68
2022-08-03T21:18:52.415Z,23.58
2022-08-03T21:21:56.757Z,23.41
2022-08-03T21:25:03.726Z,23.43
2022-08-03T21:28:08.743Z,23.44
2022-08-03T21:31:12.217Z,23.22
2022-08-03T21:34:16.959Z,23.10
2022-08-03T21:37:20.066Z,23.10
2022-08-03T21:40:23.386Z,22.97
2022-08-03T21:43:27.644Z,22.94
2022-08-03T21:46:34.652Z,23.00
2022-08-03T21:50:07.377Z,22.96
2022-08-03T21:53:07.792Z,22.95
2022-08-03T21:56:12.344Z,22.97
2022-08-03T21:59:19.964Z,23.01
2022-08-03T22:02:27.986Z,22.83
2022-08-03T22:05:43.986Z,22.91
2022-08-03T22:08:47.534Z,22.78
2022-08-03T22:11:54.240Z,22.65
2022-08-03T22:15:02.381Z,22.57
2022-08-03T22:18:06.014Z,22.56
2022-08-03T22:21:10.539Z,22.44
2022-08-03T22:24:14.557Z,22.35
2022-08-03T22:27:31.348Z,22.28
2022-08-03T22:30:36.408Z,22.23
2022-08-03T22:33:40.617Z,22.29
2022-08-03T22:36:43.946Z,22.10
2022-08-03T22:39:47.546Z,21.92
2022-08-03T22:42:52.506Z,21.76
2022-08-03T22:46:09.616Z,21.69
2022-08-03T22:49:17.403Z,21.42
2022-08-03T22:52:21.327Z,21.38
2022-08-03T22:55:25.515Z,21.38
2022-08-03T22:58:28.480Z,21.31
2022-08-03T23:01:38.834Z,21.33
2022-08-03T23:04:43.412Z,21.36
2022-08-03T23:07:46.880Z,21.38
2022-08-03T23:10:51.026Z,21.25
2022-08-03T23:13:55.043Z,21.37
2022-08-03T23:17:02.946Z,21.27
2022-08-03T23:20:08.143Z,21.36
2022-08-03T23:23:11.864Z,21.32
2022-08-03T23:26:17.227Z,21.42
2022-08-03T23:29:21.535Z,21.42
2022-08-03T23:32:26.811Z,21.43
2022-08-03T23:36:27.550Z,21.54
2022-08-03T23:39:10.152Z,21.57
2022-08-03T23:42:14.361Z,21.57
2022-08-03T23:45:19.623Z,21.58
2022-08-03T23:48:23.781Z,21.62
2022-08-03T23:51:40.020Z,21.69
2022-08-03T23:54:54.211Z,21.76
2022-08-03T23:58:04.689Z,21.79
